Time;durP1;ratioP1;P1;durP2;ratioP2;P2;SDS_P1;SDS_P2;PMS_P1;PMS_P2;Temp;Humidity;BMP_temperature;BMP_pressure;BME280_temperature;BME280_humidity;BME280_pressure;Samples;Min_cycle;Max_cycle;Signal;HPM_P1;HPM_P2
2024/01/05 00:01:38;;;;;;;27.45;9.85;;;;;;;;;;5013327;28;20019;-78
2024/01/05 00:04:04;;;;;;;26.23;9.25;;;;;;;;;;5013310;28;20462;-77
2024/01/05 00:06:29;;;;;;;33.92;9.70;;;;;;;;;;5013321;28;20485;-79
2024/01/05 00:08:54;;;;;;;27.50;8.82;;;;;;;;;;5011719;28;20036;-78
2024/01/05 00:11:20;;;;;;;33.35;9.35;;;;;;;;;;5013379;28;20045;-79
2024/01/05 00:13:48;;;;;;;25.13;7.85;;;;;;;;;;5012111;28;20457;-79
2024/01/05 00:16:19;;;;;;;24.45;7.97;;;;;;;;;;5012782;28;20430;-78
2024/01/05 00:18:45;;;;;;;33.15;9.05;;;;;;;;;;5013102;28;20026;-78
2024/01/05 00:21:20;;;;;;;27.95;8.25;;;;;;;;;;5012792;28;20072;-78
2024/01/05 00:23:45;;;;;;;21.42;7.13;;;;;;;;;;5013079;28;20025;-78
2024/01/05 00:26:10;;;;;;;28.95;8.60;;;;;;;;;;5012947;28;20026;-78
2024/01/05 00:28:36;;;;;;;39.65;7.15;;;;;;;;;;5012685;28;20423;-79
2024/01/05 00:31:01;;;;;;;33.28;7.07;;;;;;;;;;5011167;28;20485;-78
2024/01/05 00:33:26;;;;;;;33.80;7.05;;;;;;;;;;5012103;28;20022;-78
2024/01/05 00:35:51;;;;;;;28.57;6.73;;;;;;;;;;5012645;28;20447;-78
2024/01/05 00:38:17;;;;;;;27.88;6.47;;;;;;;;;;5012470;28;20307;-78
2024/01/05 00:40:42;;;;;;;27.52;7.93;;;;;;;;;;5012615;28;20091;-79
2024/01/05 00:43:07;;;;;;;27.37;7.03;;;;;;;;;;5012545;28;20133;-79
2024/01/05 00:45:32;;;;;;;24.52;6.45;;;;;;;;;;5012261;28;20283;-79
2024/01/05 00:47:57;;;;;;;27.87;6.30;;;;;;;;;;5012414;28;20030;-79
2024/01/05 00:50:23;;;;;;;38.80;6.47;;;;;;;;;;5010811;28;20575;-78
2024/01/05 00:52:48;;;;;;;36.38;7.53;;;;;;;;;;5010813;28;20285;-79
2024/01/05 00:55:13;;;;;;;31.40;6.53;;;;;;;;;;5012235;28;20059;-79
2024/01/05 00:57:38;;;;;;;28.90;6.78;;;;;;;;;;5012388;28;20387;-80
2024/01/05 01:00:04;;;;;;;22.02;5.70;;;;;;;;;;5012016;28;20390;-79
2024/01/05 01:02:29;;;;;;;34.97;6.70;;;;;;;;;;5010842;28;20042;-79
2024/01/05 01:04:54;;;;;;;28.50;5.95;;;;;;;;;;5011880;28;20506;-79
2024/01/05 01:07:19;;;;;;;36.80;6.30;;;;;;;;;;5010866;28;20026;-79
2024/01/05 01:09:45;;;;;;;34.60;6.40;;;;;;;;;;5011716;28;20026;-79
2024/01/05 01:12:10;;;;;;;24.43;6.00;;;;;;;;;;5012032;28;20430;-79
2024/01/05 01:14:35;;;;;;;32.65;7.00;;;;;;;;;;5012257;28;20709;-79
2024/01/05 01:17:00;;;;;;;26.15;6.00;;;;;;;;;;5011985;28;20034;-79
2024/01/05 01:19:25;;;;;;;31.40;6.80;;;;;;;;;;5010762;28;20113;-79
2024/01/05 01:21:51;;;;;;;37.17;5.85;;;;;;;;;;5011936;28;20272;-80
2024/01/05 01:24:16;;;;;;;24.40;6.38;;;;;;;;;;5011500;28;20065;-79
2024/01/05 01:26:42;;;;;;;28.25;5.35;;;;;;;;;;5011656;28;20036;-79
2024/01/05 01:29:08;;;;;;;27.70;6.40;;;;;;;;;;5012050;28;20045;-80
2024/01/05 01:31:33;;;;;;;26.98;5.25;;;;;;;;;;5011644;28;20496;-79
2024/01/05 01:33:58;;;;;;;30.37;5.37;;;;;;;;;;5011892;28;20433;-79
2024/01/05 01:36:23;;;;;;;25.60;5.30;;;;;;;;;;5011526;28;20265;-78
2024/01/05 01:38:49;;;;;;;28.73;5.70;;;;;;;;;;5011386;28;20269;-79
2024/01/05 01:41:14;;;;;;;32.80;6.20;;;;;;;;;;5011516;28;20261;-79
2024/01/05 01:43:44;;;;;;;22.50;5.67;;;;;;;;;;5012124;28;20091;-76
2024/01/05 01:46:10;;;;;;;23.35;5.30;;;;;;;;;;5011770;28;20736;-80
2024/01/05 01:48:35;;;;;;;33.58;5.50;;;;;;;;;;5011507;28;20046;-80
2024/01/05 01:51:00;;;;;;;23.33;5.40;;;;;;;;;;5010039;28;20382;-74
2024/01/05 01:53:27;;;;;;;24.25;5.28;;;;;;;;;;4996783;28;20045;-73
2024/01/05 01:55:52;;;;;;;23.17;5.50;;;;;;;;;;5013703;28;20458;-73
2024/01/05 01:58:18;;;;;;;20.95;6.22;;;;;;;;;;5013806;28;20024;-72
2024/01/05 02:00:44;;;;;;;29.33;4.88;;;;;;;;;;5012080;28;20095;-72
2024/01/05 02:03:09;;;;;;;34.15;4.88;;;;;;;;;;5013670;28;20075;-72
2024/01/05 02:05:35;;;;;;;23.85;6.38;;;;;;;;;;5013585;28;20043;-72
2024/01/05 02:08:00;;;;;;;23.40;5.32;;;;;;;;;;5013942;28;20030;-72
2024/01/05 02:10:25;;;;;;;30.47;6.47;;;;;;;;;;5013574;28;20471;-78
2024/01/05 02:12:51;;;;;;;24.23;5.25;;;;;;;;;;5013413;28;20384;-72
2024/01/05 02:15:17;;;;;;;21.42;5.15;;;;;;;;;;5013668;28;20033;-72
2024/01/05 02:17:42;;;;;;;21.52;5.13;;;;;;;;;;5013511;28;20044;-72
2024/01/05 02:20:08;;;;;;;30.40;5.72;;;;;;;;;;5013486;28;20449;-73
2024/01/05 02:22:34;;;;;;;30.23;7.05;;;;;;;;;;5013867;28;20026;-71
2024/01/05 02:25:00;;;;;;;28.00;5.78;;;;;;;;;;5014007;28;20029;-72
2024/01/05 02:27:26;;;;;;;31.75;6.00;;;;;;;;;;5013333;28;20033;-72
2024/01/05 02:29:51;;;;;;;26.33;6.25;;;;;;;;;;5013427;28;20022;-72
2024/01/05 02:32:17;;;;;;;35.20;6.60;;;;;;;;;;5013023;28;20065;-72
2024/01/05 02:34:42;;;;;;;36.83;6.75;;;;;;;;;;5013281;28;20022;-73
2024/01/05 02:37:07;;;;;;;24.58;5.13;;;;;;;;;;5016023;28;20109;-74
2024/01/05 02:39:33;;;;;;;22.20;5.18;;;;;;;;;;5016972;28;20160;-73
2024/01/05 02:41:58;;;;;;;23.27;5.00;;;;;;;;;;5016936;28;20459;-72
2024/01/05 02:44:23;;;;;;;26.50;4.88;;;;;;;;;;5017125;28;20477;-72
2024/01/05 02:46:48;;;;;;;28.07;4.77;;;;;;;;;;5017051;28;20459;-73
2024/01/05 02:49:13;;;;;;;22.97;4.87;;;;;;;;;;5017385;28;20269;-73
2024/01/05 02:51:39;;;;;;;29.58;4.93;;;;;;;;;;5017492;28;20321;-73
2024/01/05 02:54:05;;;;;;;21.33;4.28;;;;;;;;;;5016818;28;20530;-73
2024/01/05 02:56:31;;;;;;;16.40;4.50;;;;;;;;;;5016930;28;20537;-73
2024/01/05 02:58:56;;;;;;;23.48;4.57;;;;;;;;;;5017055;28;20026;-74
2024/01/05 03:01:21;;;;;;;20.02;3.58;;;;;;;;;;5016337;28;20509;-73
2024/01/05 03:03:47;;;;;;;15.75;3.88;;;;;;;;;;5016874;28;20366;-73
2024/01/05 03:06:16;;;;;;;23.52;4.75;;;;;;;;;;5016576;28;20493;-73
2024/01/05 03:08:41;;;;;;;21.90;3.88;;;;;;;;;;5016637;28;20117;-73
2024/01/05 03:11:06;;;;;;;14.75;3.33;;;;;;;;;;5016760;28;20109;-72
2024/01/05 03:13:32;;;;;;;20.37;3.20;;;;;;;;;;5015544;28;20084;-72
2024/01/05 03:15:57;;;;;;;17.30;3.50;;;;;;;;;;5016509;28;20300;-73
2024/01/05 03:18:22;;;;;;;21.10;4.10;;;;;;;;;;5016707;28;20025;-72
2024/01/05 03:20:47;;;;;;;16.07;3.63;;;;;;;;;;4998945;28;20450;-73
2024/01/05 03:23:14;;;;;;;14.80;3.00;;;;;;;;;;5016973;28;20275;-72
2024/01/05 03:25:39;;;;;;;15.63;3.78;;;;;;;;;;5017027;28;20590;-73
2024/01/05 03:28:05;;;;;;;17.13;2.97;;;;;;;;;;5016714;28;20081;-73
2024/01/05 03:30:30;;;;;;;16.15;3.00;;;;;;;;;;5016200;28;20034;-73
2024/01/05 03:32:55;;;;;;;28.60;3.40;;;;;;;;;;5016092;28;20104;-72
2024/01/05 03:35:20;;;;;;;12.23;2.80;;;;;;;;;;5016221;28;20745;-74
2024/01/05 03:37:46;;;;;;;13.55;3.20;;;;;;;;;;5016120;28;20547;-73
2024/01/05 03:40:11;;;;;;;20.42;3.60;;;;;;;;;;5016158;28;20053;-73
2024/01/05 03:42:36;;;;;;;23.52;3.40;;;;;;;;;;5016301;28;20410;-73
2024/01/05 03:45:01;;;;;;;16.45;3.75;;;;;;;;;;5015694;28;20022;-73
2024/01/05 03:47:26;;;;;;;13.88;3.22;;;;;;;;;;5013530;28;20018;-73
2024/01/05 03:49:52;;;;;;;21.73;3.40;;;;;;;;;;5015890;28;20045;-73
2024/01/05 03:52:17;;;;;;;15.88;2.55;;;;;;;;;;5014681;28;20033;-72
2024/01/05 03:54:42;;;;;;;17.37;3.23;;;;;;;;;;5015604;28;20029;-72
2024/01/05 03:57:07;;;;;;;16.70;2.60;;;;;;;;;;5016473;28;20261;-72
2024/01/05 03:59:33;;;;;;;15.13;3.00;;;;;;;;;;5016249;28;20056;-73
2024/01/05 04:01:58;;;;;;;16.17;3.55;;;;;;;;;;5015715;28;20017;-72
2024/01/05 04:04:23;;;;;;;16.42;3.13;;;;;;;;;;5015966;28;20026;-73
2024/01/05 04:06:50;;;;;;;17.15;2.88;;;;;;;;;;5015277;28;20386;-73
2024/01/05 04:09:16;;;;;;;15.43;3.40;;;;;;;;;;5015920;28;20026;-73
2024/01/05 04:11:41;;;;;;;15.73;3.35;;;;;;;;;;5014465;28;20048;-73
2024/01/05 04:14:06;;;;;;;18.63;3.53;;;;;;;;;;5013878;28;20034;-73
2024/01/05 04:16:32;;;;;;;11.15;2.83;;;;;;;;;;5015480;28;20017;-74
2024/01/05 04:18:57;;;;;;;11.40;2.58;;;;;;;;;;5014302;28;20148;-72
2024/01/05 04:21:22;;;;;;;15.63;3.65;;;;;;;;;;5014229;28;20021;-73
2024/01/05 04:23:47;;;;;;;9.70;2.50;;;;;;;;;;5015586;28;20462;-73
2024/01/05 04:26:15;;;;;;;18.98;3.00;;;;;;;;;;5014108;28;20458;-73
2024/01/05 04:28:40;;;;;;;9.23;2.20;;;;;;;;;;5015218;28;20145;-73
2024/01/05 04:31:06;;;;;;;15.95;3.13;;;;;;;;;;5015138;28;20065;-73
2024/01/05 04:33:31;;;;;;;15.75;2.78;;;;;;;;;;5013861;28;20112;-73
2024/01/05 04:35:57;;;;;;;21.05;2.60;;;;;;;;;;5015399;28;20033;-74
2024/01/05 04:38:22;;;;;;;8.38;2.28;;;;;;;;;;5015900;28;20022;-73
2024/01/05 04:40:47;;;;;;;12.50;2.53;;;;;;;;;;5014044;28;20108;-74
2024/01/05 04:43:12;;;;;;;10.13;2.13;;;;;;;;;;5015007;28;20026;-72
2024/01/05 04:45:38;;;;;;;10.90;2.60;;;;;;;;;;5014847;28;20273;-72
2024/01/05 04:48:03;;;;;;;8.40;2.33;;;;;;;;;;5015084;28;20022;-73
2024/01/05 04:50:28;;;;;;;15.55;2.53;;;;;;;;;;5014612;28;20022;-73
2024/01/05 04:52:53;;;;;;;8.00;1.63;;;;;;;;;;5014484;28;20022;-73
2024/01/05 04:55:19;;;;;;;3.15;1.20;;;;;;;;;;5015197;28;20033;-73
2024/01/05 04:57:44;;;;;;;7.65;1.60;;;;;;;;;;5014542;28;20014;-74
2024/01/05 05:00:10;;;;;;;3.15;1.00;;;;;;;;;;5014201;28;20378;-73
2024/01/05 05:02:35;;;;;;;4.43;1.35;;;;;;;;;;5015053;28;20524;-73
2024/01/05 05:05:00;;;;;;;8.50;1.98;;;;;;;;;;5014392;28;20041;-74
2024/01/05 05:07:25;;;;;;;5.35;1.38;;;;;;;;;;5014496;28;20026;-73
2024/01/05 05:09:50;;;;;;;4.57;1.20;;;;;;;;;;5014595;28;20026;-75
2024/01/05 05:12:16;;;;;;;7.32;1.35;;;;;;;;;;5013249;28;20032;-73
2024/01/05 05:14:41;;;;;;;7.07;1.48;;;;;;;;;;5014838;28;20041;-72
2024/01/05 05:17:06;;;;;;;3.92;1.20;;;;;;;;;;5013871;28;20056;-73
2024/01/05 05:19:32;;;;;;;4.63;1.05;;;;;;;;;;5013562;28;20075;-72
2024/01/05 05:21:57;;;;;;;5.15;1.20;;;;;;;;;;5014104;28;20356;-72
2024/01/05 05:24:22;;;;;;;5.32;1.15;;;;;;;;;;5014237;28;20022;-73
2024/01/05 05:26:48;;;;;;;2.53;0.85;;;;;;;;;;5014074;28;20053;-74
2024/01/05 05:29:13;;;;;;;2.00;1.10;;;;;;;;;;5014245;28;20068;-73
2024/01/05 05:31:38;;;;;;;3.72;1.27;;;;;;;;;;5014048;28;20606;-72
2024/01/05 05:34:04;;;;;;;3.17;1.02;;;;;;;;;;5013914;28;20026;-74
2024/01/05 05:36:29;;;;;;;1.55;0.88;;;;;;;;;;5014013;28;20108;-73
2024/01/05 05:38:54;;;;;;;5.35;1.40;;;;;;;;;;5013811;28;20095;-74
2024/01/05 05:41:19;;;;;;;3.25;1.20;;;;;;;;;;5013884;28;20049;-74
2024/01/05 05:43:45;;;;;;;4.00;1.13;;;;;;;;;;5013960;28;20030;-73
2024/01/05 05:46:11;;;;;;;1.63;0.77;;;;;;;;;;5014389;28;20260;-73
2024/01/05 05:48:36;;;;;;;5.85;0.98;;;;;;;;;;5012543;28;20026;-73
2024/01/05 05:51:01;;;;;;;3.63;0.80;;;;;;;;;;5014059;28;20044;-74
2024/01/05 05:53:26;;;;;;;2.03;1.00;;;;;;;;;;5013610;28;20289;-73
2024/01/05 05:55:52;;;;;;;3.63;0.98;;;;;;;;;;5013770;28;20294;-73
2024/01/05 05:58:17;;;;;;;2.85;0.70;;;;;;;;;;5013894;28;20032;-73
2024/01/05 06:00:42;;;;;;;4.00;1.10;;;;;;;;;;5013094;28;20049;-72
2024/01/05 06:03:07;;;;;;;1.23;0.75;;;;;;;;;;5013729;28;20105;-73
2024/01/05 06:05:33;;;;;;;0.88;0.63;;;;;;;;;;5012353;28;20029;-72
2024/01/05 06:07:58;;;;;;;2.15;0.70;;;;;;;;;;5013159;28;20032;-73
2024/01/05 06:10:24;;;;;;;1.63;1.02;;;;;;;;;;5012890;28;20028;-72
2024/01/05 06:12:49;;;;;;;2.95;0.93;;;;;;;;;;5013371;28;20062;-72
2024/01/05 06:15:14;;;;;;;3.93;0.67;;;;;;;;;;5012461;28;20121;-73
2024/01/05 06:17:39;;;;;;;1.67;0.60;;;;;;;;;;5013423;28;20267;-73
2024/01/05 06:20:07;;;;;;;1.38;0.60;;;;;;;;;;5012832;28;20269;-72
2024/01/05 06:22:32;;;;;;;2.97;0.85;;;;;;;;;;5012097;28;20076;-72
2024/01/05 06:24:58;;;;;;;2.22;0.60;;;;;;;;;;5013381;28;20014;-73
2024/01/05 06:27:23;;;;;;;1.58;0.50;;;;;;;;;;5013610;28;20391;-72
2024/01/05 06:29:48;;;;;;;1.10;0.70;;;;;;;;;;5013661;28;20091;-73
2024/01/05 06:32:13;;;;;;;3.10;0.57;;;;;;;;;;5013389;28;20421;-72
2024/01/05 06:34:39;;;;;;;1.53;0.70;;;;;;;;;;5013331;28;20139;-73
2024/01/05 06:37:05;;;;;;;0.57;0.57;;;;;;;;;;5014577;28;20346;-73
2024/01/05 06:39:31;;;;;;;2.75;0.77;;;;;;;;;;5014042;28;20030;-73
2024/01/05 06:41:56;;;;;;;0.65;0.65;;;;;;;;;;5014971;28;20026;-72
2024/01/05 06:44:22;;;;;;;1.85;0.90;;;;;;;;;;5014723;28;20033;-73
2024/01/05 06:46:50;;;;;;;2.80;0.88;;;;;;;;;;5012299;28;20367;-74
2024/01/05 06:49:15;;;;;;;2.08;1.00;;;;;;;;;;5013972;28;20072;-73
2024/01/05 06:51:40;;;;;;;1.13;1.02;;;;;;;;;;5013229;28;20061;-73
2024/01/05 06:54:05;;;;;;;3.85;1.15;;;;;;;;;;5014136;28;20070;-73
2024/01/05 06:56:34;;;;;;;4.18;1.40;;;;;;;;;;5015432;28;20065;-73
2024/01/05 06:59:03;;;;;;;3.33;1.42;;;;;;;;;;5014694;28;20022;-73
2024/01/05 07:01:29;;;;;;;2.65;1.33;;;;;;;;;;5015982;28;20390;-73
2024/01/05 07:03:54;;;;;;;1.50;1.40;;;;;;;;;;5020463;28;20462;-72
2024/01/05 07:06:19;;;;;;;2.58;1.33;;;;;;;;;;5019553;28;20022;-73
2024/01/05 07:08:44;;;;;;;5.07;1.70;;;;;;;;;;5021281;28;20026;-73
2024/01/05 07:11:18;;;;;;;2.28;1.60;;;;;;;;;;5021646;28;20086;-73
2024/01/05 07:13:43;;;;;;;3.95;1.30;;;;;;;;;;5022070;28;20033;-73
2024/01/05 07:16:14;;;;;;;4.40;1.60;;;;;;;;;;5019402;28;20030;-73
2024/01/05 07:18:39;;;;;;;3.47;1.50;;;;;;;;;;5014820;28;20284;-74
2024/01/05 07:21:04;;;;;;;2.80;1.33;;;;;;;;;;5014239;28;20477;-73
2024/01/05 07:23:29;;;;;;;5.28;1.85;;;;;;;;;;5016250;28;20034;-73
2024/01/05 07:25:55;;;;;;;2.63;1.57;;;;;;;;;;5016706;28;20037;-73
2024/01/05 07:28:20;;;;;;;4.60;2.05;;;;;;;;;;5016878;28;20293;-74
2024/01/05 07:30:45;;;;;;;3.40;1.87;;;;;;;;;;5016381;28;20041;-72
2024/01/05 07:33:10;;;;;;;5.85;2.17;;;;;;;;;;5016201;28;20288;-74
2024/01/05 07:35:36;;;;;;;5.45;1.88;;;;;;;;;;5016430;28;20026;-72
2024/01/05 07:38:01;;;;;;;4.55;1.75;;;;;;;;;;5016154;28;20168;-73
2024/01/05 07:40:26;;;;;;;4.72;1.98;;;;;;;;;;5015756;28;20053;-72
2024/01/05 07:42:51;;;;;;;4.90;2.20;;;;;;;;;;5015993;28;20038;-73
2024/01/05 07:45:17;;;;;;;8.48;2.65;;;;;;;;;;5016196;28;20394;-74
2024/01/05 07:47:42;;;;;;;3.45;2.20;;;;;;;;;;5015991;28;20026;-73
2024/01/05 07:50:07;;;;;;;4.20;2.20;;;;;;;;;;5014681;28;20014;-73
2024/01/05 07:52:33;;;;;;;3.00;2.20;;;;;;;;;;5016069;28;20022;-72
2024/01/05 07:54:58;;;;;;;4.95;2.13;;;;;;;;;;5015896;28;20517;-73
2024/01/05 07:57:23;;;;;;;3.53;2.30;;;;;;;;;;5015528;28;20029;-73
2024/01/05 07:59:48;;;;;;;3.53;2.28;;;;;;;;;;5015438;28;20104;-73
2024/01/05 08:02:14;;;;;;;3.40;2.30;;;;;;;;;;5016275;28;20114;-76
2024/01/05 08:04:39;;;;;;;4.97;2.55;;;;;;;;;;5015703;28;20328;-73
2024/01/05 08:07:04;;;;;;;4.78;2.80;;;;;;;;;;5015933;28;20053;-74
2024/01/05 08:09:29;;;;;;;3.25;2.38;;;;;;;;;;5015586;28;20022;-73
2024/01/05 08:11:54;;;;;;;5.28;2.70;;;;;;;;;;5015907;28;20022;-73
2024/01/05 08:14:20;;;;;;;3.20;2.63;;;;;;;;;;5014018;28;20398;-74
2024/01/05 08:16:45;;;;;;;3.78;2.67;;;;;;;;;;5015421;28;20451;-73
2024/01/05 08:19:10;;;;;;;4.40;2.70;;;;;;;;;;5015941;28;20025;-73
2024/01/05 08:21:35;;;;;;;4.90;2.63;;;;;;;;;;5015510;28;20136;-73
2024/01/05 08:24:02;;;;;;;6.28;3.00;;;;;;;;;;5014098;28;20034;-73
2024/01/05 08:26:27;;;;;;;3.88;3.03;;;;;;;;;;5015171;28;20114;-73
2024/01/05 08:28:52;;;;;;;4.47;3.08;;;;;;;;;;5015429;28;20050;-73
2024/01/05 08:31:17;;;;;;;5.77;3.23;;;;;;;;;;5015410;28;20034;-77
2024/01/05 08:33:43;;;;;;;3.42;3.10;;;;;;;;;;5014852;28;20289;-73
2024/01/05 08:36:08;;;;;;;6.53;4.03;;;;;;;;;;5014156;28;20045;-75
2024/01/05 08:38:33;;;;;;;9.85;4.68;;;;;;;;;;5014962;28;20014;-72
2024/01/05 08:40:59;;;;;;;8.57;4.60;;;;;;;;;;5014718;28;20026;-73
2024/01/05 08:43:24;;;;;;;11.70;4.97;;;;;;;;;;5013475;28;20073;-73
2024/01/05 08:45:49;;;;;;;11.70;6.07;;;;;;;;;;5014884;28;20030;-73
2024/01/05 08:48:15;;;;;;;8.83;6.33;;;;;;;;;;5014600;28;20385;-74
2024/01/05 08:50:40;;;;;;;13.30;7.65;;;;;;;;;;5013470;28;20724;-73
2024/01/05 08:53:05;;;;;;;11.38;7.35;;;;;;;;;;5014670;28;20022;-73
2024/01/05 08:55:31;;;;;;;13.55;7.75;;;;;;;;;;5013376;28;20045;-73
2024/01/05 08:57:57;;;;;;;12.25;7.88;;;;;;;;;;5014058;28;20018;-74
2024/01/05 09:00:22;;;;;;;15.18;8.73;;;;;;;;;;5013705;28;20065;-75
2024/01/05 09:02:47;;;;;;;15.75;8.90;;;;;;;;;;5014234;28;20029;-73
2024/01/05 09:05:12;;;;;;;16.25;9.77;;;;;;;;;;5013821;28;20485;-75
2024/01/05 09:07:38;;;;;;;19.33;9.13;;;;;;;;;;5013783;28;20092;-73
2024/01/05 09:10:03;;;;;;;19.85;9.93;;;;;;;;;;5012563;28;20072;-73
2024/01/05 09:12:28;;;;;;;17.50;9.73;;;;;;;;;;5013942;28;20041;-73
2024/01/05 09:14:54;;;;;;;17.20;9.50;;;;;;;;;;5014564;28;20025;-73
2024/01/05 09:17:19;;;;;;;16.25;9.35;;;;;;;;;;5014544;28;20021;-73
2024/01/05 09:19:44;;;;;;;14.65;9.23;;;;;;;;;;5013951;28;20462;-74
2024/01/05 09:22:10;;;;;;;14.40;9.15;;;;;;;;;;5013530;28;20099;-73
2024/01/05 09:24:36;;;;;;;17.88;9.00;;;;;;;;;;5013780;28;20374;-73
2024/01/05 09:27:04;;;;;;;16.42;8.48;;;;;;;;;;5013535;28;20026;-74
2024/01/05 09:29:30;;;;;;;11.80;8.38;;;;;;;;;;5014293;28;20033;-74
2024/01/05 09:31:56;;;;;;;15.73;9.32;;;;;;;;;;5014125;28;20026;-72
2024/01/05 09:34:21;;;;;;;17.55;8.65;;;;;;;;;;5012983;28;20044;-74
2024/01/05 09:36:46;;;;;;;14.95;8.57;;;;;;;;;;5014032;28;20022;-75
2024/01/05 09:39:12;;;;;;;15.93;8.50;;;;;;;;;;5013590;28;20481;-74
2024/01/05 09:41:38;;;;;;;16.40;8.07;;;;;;;;;;5014395;28;20257;-74
2024/01/05 09:44:04;;;;;;;17.27;8.80;;;;;;;;;;5013913;28;20026;-75
2024/01/05 09:46:29;;;;;;;18.33;8.60;;;;;;;;;;5012587;28;20030;-73
2024/01/05 09:49:01;;;;;;;14.90;8.55;;;;;;;;;;5013597;28;20072;-72
2024/01/05 09:51:29;;;;;;;14.15;8.50;;;;;;;;;;5013517;28;20368;-72
2024/01/05 09:53:54;;;;;;;10.63;7.20;;;;;;;;;;5013347;28;20513;-73
2024/01/05 09:56:21;;;;;;;13.13;7.93;;;;;;;;;;5013959;28;20026;-73
2024/01/05 09:58:46;;;;;;;12.27;7.35;;;;;;;;;;5013304;28;20017;-73
2024/01/05 10:01:17;;;;;;;9.80;6.85;;;;;;;;;;5012007;28;20145;-73
2024/01/05 10:03:45;;;;;;;15.80;7.63;;;;;;;;;;5013334;28;20462;-74
2024/01/05 10:06:15;;;;;;;15.77;7.18;;;;;;;;;;5012792;28;20022;-74
2024/01/05 10:08:40;;;;;;;18.40;7.45;;;;;;;;;;5013470;28;20036;-74
2024/01/05 10:11:06;;;;;;;18.02;7.50;;;;;;;;;;5013482;28;20026;-74
2024/01/05 10:13:32;;;;;;;12.30;6.03;;;;;;;;;;5013087;28;20026;-76
2024/01/05 10:16:00;;;;;;;13.23;6.30;;;;;;;;;;5012917;28;20029;-73
2024/01/05 10:18:26;;;;;;;14.23;6.25;;;;;;;;;;5013186;28;20033;-74
2024/01/05 10:20:51;;;;;;;10.43;5.03;;;;;;;;;;5013614;28;20027;-74
2024/01/05 10:23:17;;;;;;;11.00;5.80;;;;;;;;;;5014190;28;20030;-73
2024/01/05 10:25:42;;;;;;;8.52;4.93;;;;;;;;;;5013234;28;20473;-74
2024/01/05 10:28:23;;;;;;;10.82;4.85;;;;;;;;;;5013453;28;20076;-73
2024/01/05 10:30:48;;;;;;;7.75;4.93;;;;;;;;;;5013663;28;20356;-74
2024/01/05 10:33:16;;;;;;;10.45;4.75;;;;;;;;;;5013329;28;20053;-72
2024/01/05 10:35:41;;;;;;;6.70;4.60;;;;;;;;;;5011961;28;20037;-72
2024/01/05 10:38:11;;;;;;;8.77;5.43;;;;;;;;;;5012198;28;20021;-71
2024/01/05 10:40:36;;;;;;;8.85;4.70;;;;;;;;;;5013540;28;20017;-76
2024/01/05 10:43:12;;;;;;;8.95;4.78;;;;;;;;;;5013036;28;20040;-72
2024/01/05 10:45:39;;;;;;;6.00;4.40;;;;;;;;;;5012350;28;20045;-74
2024/01/05 10:48:07;;;;;;;8.23;4.22;;;;;;;;;;5013842;28;20084;-73
2024/01/05 10:50:34;;;;;;;8.48;4.47;;;;;;;;;;5013524;28;20489;-73
2024/01/05 10:53:00;;;;;;;7.57;4.20;;;;;;;;;;5012922;28;20029;-72
2024/01/05 10:55:25;;;;;;;7.60;4.72;;;;;;;;;;5013489;28;20026;-73
2024/01/05 10:57:50;;;;;;;7.75;5.07;;;;;;;;;;5015865;28;20052;-74
2024/01/05 11:00:16;;;;;;;7.45;4.97;;;;;;;;;;5017012;28;20058;-72
2024/01/05 11:02:43;;;;;;;9.15;4.82;;;;;;;;;;5017315;28;20036;-73
2024/01/05 11:05:09;;;;;;;7.32;5.28;;;;;;;;;;5015601;28;20415;-73
2024/01/05 11:07:35;;;;;;;11.10;5.60;;;;;;;;;;5016999;28;20018;-72
2024/01/05 11:10:20;;;;;;;8.75;5.50;;;;;;;;;;5016854;28;20050;-72
2024/01/05 11:13:04;;;;;;;12.48;6.07;;;;;;;;;;5016207;28;20117;-72
2024/01/05 11:15:29;;;;;;;8.48;5.47;;;;;;;;;;5016356;28;20026;-72
2024/01/05 11:17:55;;;;;;;10.20;6.17;;;;;;;;;;5016447;28;20018;-73
2024/01/05 11:20:48;;;;;;;11.20;6.60;;;;;;;;;;5015578;28;20607;-73
2024/01/05 11:23:14;;;;;;;18.40;7.03;;;;;;;;;;5016064;28;20272;-72
2024/01/05 11:25:39;;;;;;;13.43;7.40;;;;;;;;;;5016506;28;20374;-73
2024/01/05 11:28:06;;;;;;;12.38;7.88;;;;;;;;;;5016317;28;20409;-73
2024/01/05 11:30:41;;;;;;;17.45;8.93;;;;;;;;;;5015768;28;20029;-73
2024/01/05 11:33:07;;;;;;;14.85;8.88;;;;;;;;;;5014781;28;20022;-72
2024/01/05 11:35:38;;;;;;;15.85;9.13;;;;;;;;;;5016193;28;20026;-74
2024/01/05 11:38:15;;;;;;;16.77;8.85;;;;;;;;;;5016392;28;20053;-72
2024/01/05 11:40:40;;;;;;;16.67;9.00;;;;;;;;;;5015944;28;20029;-72
2024/01/05 11:43:24;;;;;;;15.80;10.17;;;;;;;;;;5016092;28;20030;-72
2024/01/05 11:45:50;;;;;;;15.30;10.00;;;;;;;;;;5015632;28;20323;-73
2024/01/05 11:48:33;;;;;;;18.45;10.20;;;;;;;;;;5016033;28;20541;-73
2024/01/05 11:51:02;;;;;;;15.60;10.10;;;;;;;;;;5016380;28;20028;-72
2024/01/05 11:53:28;;;;;;;16.30;9.20;;;;;;;;;;5015714;28;20494;-72
2024/01/05 11:55:57;;;;;;;14.57;9.00;;;;;;;;;;4998436;28;20050;-73
2024/01/05 11:58:27;;;;;;;13.07;8.90;;;;;;;;;;5015865;28;20096;-73
2024/01/05 12:00:54;;;;;;;16.65;8.65;;;;;;;;;;5014126;28;20065;-73
2024/01/05 12:03:22;;;;;;;9.80;6.80;;;;;;;;;;5015446;28;20057;-72
2024/01/05 12:05:48;;;;;;;11.40;5.07;;;;;;;;;;5015706;28;20109;-72
2024/01/05 12:08:14;;;;;;;6.97;4.15;;;;;;;;;;5015076;28;20501;-72
2024/01/05 12:10:39;;;;;;;6.40;3.67;;;;;;;;;;5014170;28;20112;-74
2024/01/05 12:13:05;;;;;;;5.03;3.40;;;;;;;;;;5015474;28;20473;-73
2024/01/05 12:15:31;;;;;;;4.00;2.40;;;;;;;;;;5015737;28;20022;-73
2024/01/05 12:18:09;;;;;;;2.50;2.30;;;;;;;;;;5015692;28;20072;-73
2024/01/05 12:20:37;;;;;;;4.05;2.45;;;;;;;;;;5016231;28;20022;-73
2024/01/05 12:23:03;;;;;;;4.00;2.40;;;;;;;;;;5015333;28;20025;-72
2024/01/05 12:25:28;;;;;;;3.45;2.20;;;;;;;;;;5015307;28;20030;-72
2024/01/05 12:27:54;;;;;;;2.30;1.90;;;;;;;;;;5015110;28;20028;-73
2024/01/05 12:30:20;;;;;;;1.73;1.63;;;;;;;;;;5015371;28;20417;-72
2024/01/05 12:32:46;;;;;;;8.82;2.40;;;;;;;;;;5015712;28;20393;-72
2024/01/05 12:35:12;;;;;;;1.35;1.30;;;;;;;;;;5015145;28;20029;-73
2024/01/05 12:37:48;;;;;;;1.60;1.50;;;;;;;;;;5015161;28;20075;-72
2024/01/05 12:40:13;;;;;;;1.73;1.63;;;;;;;;;;5013972;28;20120;-71
2024/01/05 12:42:39;;;;;;;1.50;1.40;;;;;;;;;;5015030;28;20422;-71
2024/01/05 12:45:05;;;;;;;1.70;1.58;;;;;;;;;;5015162;28;20519;-72
2024/01/05 12:47:30;;;;;;;2.40;1.67;;;;;;;;;;5014903;28;20037;-73
2024/01/05 12:49:55;;;;;;;3.40;1.58;;;;;;;;;;5014544;28;20458;-73
2024/01/05 12:52:31;;;;;;;2.50;1.65;;;;;;;;;;5015350;28;20088;-72
2024/01/05 12:54:56;;;;;;;2.42;2.22;;;;;;;;;;5015337;28;20052;-74
2024/01/05 12:57:22;;;;;;;4.10;2.70;;;;;;;;;;5014492;28;20474;-74
2024/01/05 12:59:47;;;;;;;4.47;2.60;;;;;;;;;;5014184;28;20390;-73
2024/01/05 13:02:12;;;;;;;5.82;2.92;;;;;;;;;;5013951;28;20057;-73
2024/01/05 13:04:39;;;;;;;3.70;3.30;;;;;;;;;;5013214;28;20386;-74
2024/01/05 13:07:04;;;;;;;10.02;3.70;;;;;;;;;;5013151;28;20489;-73
2024/01/05 13:09:32;;;;;;;5.60;3.55;;;;;;;;;;5014270;28;20022;-73
2024/01/05 13:11:57;;;;;;;4.75;3.58;;;;;;;;;;5014285;28;20466;-76
2024/01/05 13:14:23;;;;;;;9.00;4.22;;;;;;;;;;5014378;28;20026;-72
2024/01/05 13:16:48;;;;;;;4.68;3.47;;;;;;;;;;5014618;28;20025;-73
2024/01/05 13:19:16;;;;;;;4.78;3.10;;;;;;;;;;5014343;28;20018;-72
2024/01/05 13:21:42;;;;;;;3.60;3.20;;;;;;;;;;5014092;28;20183;-73
2024/01/05 13:24:07;;;;;;;4.78;2.83;;;;;;;;;;5013902;28;20488;-75
2024/01/05 13:26:33;;;;;;;3.50;2.80;;;;;;;;;;5013775;28;20072;-73
2024/01/05 13:28:58;;;;;;;5.97;2.50;;;;;;;;;;5014356;28;20022;-73
2024/01/05 13:31:23;;;;;;;3.93;2.00;;;;;;;;;;5012451;28;20052;-72
2024/01/05 13:33:48;;;;;;;2.90;2.00;;;;;;;;;;5013718;28;20383;-72
2024/01/05 13:36:14;;;;;;;3.83;1.67;;;;;;;;;;5013669;28;20032;-72
2024/01/05 13:38:39;;;;;;;5.35;2.00;;;;;;;;;;5013769;28;20022;-75
2024/01/05 13:41:04;;;;;;;2.72;1.50;;;;;;;;;;5013744;28;20508;-73
2024/01/05 13:43:30;;;;;;;3.70;1.87;;;;;;;;;;5013881;28;20029;-74
2024/01/05 13:45:55;;;;;;;5.07;1.70;;;;;;;;;;5014064;28;20367;-74
2024/01/05 13:48:20;;;;;;;4.30;1.90;;;;;;;;;;5013887;28;20517;-76
2024/01/05 13:50:46;;;;;;;3.80;1.65;;;;;;;;;;5013652;28;20096;-72
2024/01/05 13:53:13;;;;;;;2.33;1.58;;;;;;;;;;5012624;28;20064;-74
2024/01/05 13:55:39;;;;;;;2.47;1.52;;;;;;;;;;5013829;28;20104;-73
2024/01/05 13:58:04;;;;;;;3.10;1.80;;;;;;;;;;5013700;28;20101;-78
2024/01/05 14:00:29;;;;;;;4.03;1.55;;;;;;;;;;5013455;28;20048;-73
2024/01/05 14:02:55;;;;;;;4.65;1.52;;;;;;;;;;5013215;28;20117;-73
2024/01/05 14:05:20;;;;;;;2.45;1.40;;;;;;;;;;5013629;28;20132;-74
2024/01/05 14:07:45;;;;;;;6.63;1.70;;;;;;;;;;5013390;28;20485;-73
2024/01/05 14:10:11;;;;;;;3.85;1.30;;;;;;;;;;5013574;28;20087;-73
2024/01/05 14:12:36;;;;;;;8.65;1.92;;;;;;;;;;5014057;28;20137;-73
2024/01/05 14:15:03;;;;;;;5.80;1.58;;;;;;;;;;4996036;28;20402;-73
2024/01/05 14:17:29;;;;;;;5.13;1.55;;;;;;;;;;5013664;28;20459;-74
2024/01/05 14:19:54;;;;;;;4.93;1.65;;;;;;;;;;5014081;28;20024;-74
2024/01/05 14:22:19;;;;;;;2.33;1.50;;;;;;;;;;5013670;28;20056;-72
2024/01/05 14:24:44;;;;;;;3.35;1.90;;;;;;;;;;5015372;28;20022;-73
2024/01/05 14:27:10;;;;;;;1.92;1.50;;;;;;;;;;5017573;28;20022;-74
2024/01/05 14:29:35;;;;;;;4.63;1.53;;;;;;;;;;5023615;28;20026;-72